Time;durP1;ratioP1;P1;durP2;ratioP2;P2;SDS_P1;SDS_P2;PMS_P1;PMS_P2;Temp;Humidity;BMP_temperature;BMP_pressure;BME280_temperature;BME280_humidity;BME280_pressure;Samples;Min_cycle;Max_cycle;Signal;HPM_P1;HPM_P2
2021/11/15 00:02:25;;;;;;;24.35;11.95;;;;;;;7.18;79.69;100447.63;4843669;29;20078;-62
2021/11/15 00:04:58;;;;;;;23.08;12.02;;;;;;;7.06;79.48;100445.63;4844143;29;20098;-62
2021/11/15 00:07:30;;;;;;;23.40;11.57;;;;;;;6.97;79.18;100449.63;4843489;29;20057;-62
2021/11/15 00:10:04;;;;;;;22.98;12.38;;;;;;;6.90;79.31;100447.72;4844015;29;20069;-62
2021/11/15 00:12:34;;;;;;;25.85;11.63;;;;;;;6.85;79.65;100444.22;4844137;29;20060;-63
2021/11/15 00:15:08;;;;;;;23.95;11.27;;;;;;;6.82;79.71;100454.28;4843388;29;20050;-63
2021/11/15 00:17:41;;;;;;;21.45;11.45;;;;;;;6.79;79.29;100456.75;4843426;29;20042;-63
2021/11/15 00:20:11;;;;;;;24.35;11.65;;;;;;;6.74;79.19;100454.94;4843617;29;20472;-62
2021/11/15 00:22:44;;;;;;;21.30;12.10;;;;;;;6.64;79.54;100455.53;4842643;29;20132;-62
2021/11/15 00:25:17;;;;;;;24.35;11.30;;;;;;;6.62;79.72;100467.28;4843540;29;20107;-62
2021/11/15 00:27:49;;;;;;;25.75;11.70;;;;;;;6.53;79.21;100461.97;4843438;29;20137;-62
2021/11/15 00:30:23;;;;;;;26.02;12.15;;;;;;;6.46;79.58;100472.75;4843515;29;20062;-62
2021/11/15 00:32:55;;;;;;;21.85;10.80;;;;;;;6.42;80.03;100470.94;4843217;29;20050;-62
2021/11/15 00:35:25;;;;;;;22.13;11.45;;;;;;;6.39;79.48;100462.38;4843429;29;20149;-62
2021/11/15 00:37:54;;;;;;;24.73;11.80;;;;;;;6.30;79.45;100473.13;4843124;29;20062;-62
2021/11/15 00:40:24;;;;;;;18.52;9.73;;;;;;;6.26;79.51;100465.41;4843319;29;20050;-62
2021/11/15 00:42:56;;;;;;;20.20;10.27;;;;;;;6.22;79.41;100469.50;4843029;29;20053;-63
2021/11/15 00:45:27;;;;;;;21.52;11.05;;;;;;;6.27;79.22;100467.97;4843069;29;20058;-63
2021/11/15 00:47:59;;;;;;;21.52;10.45;;;;;;;6.21;79.82;100467.81;4843054;29;20421;-63
2021/11/15 00:50:29;;;;;;;21.15;10.23;;;;;;;6.22;79.58;100477.09;4843160;29;20108;-62
2021/11/15 00:52:59;;;;;;;21.63;10.23;;;;;;;6.18;79.76;100472.78;4842892;29;20077;-63
2021/11/15 00:55:28;;;;;;;24.70;10.57;;;;;;;6.20;80.40;100473.69;4843198;29;20050;-63
2021/11/15 00:58:02;;;;;;;20.90;10.48;;;;;;;6.26;80.39;100476.41;4842864;29;20088;-63
2021/11/15 01:00:37;;;;;;;21.88;10.65;;;;;;;6.27;80.37;100467.97;4842782;29;20053;-62
2021/11/15 01:03:11;;;;;;;20.05;10.43;;;;;;;6.29;80.64;100473.94;4842828;29;20058;-62
2021/11/15 01:05:48;;;;;;;21.67;10.75;;;;;;;6.31;80.24;100476.53;4842845;29;20050;-62
2021/11/15 01:08:18;;;;;;;22.30;10.13;;;;;;;6.12;80.10;100477.66;4842738;29;20085;-62
2021/11/15 01:10:52;;;;;;;18.38;9.55;;;;;;;6.06;80.68;100477.47;4842997;29;20097;-62
2021/11/15 01:13:26;;;;;;;18.90;9.57;;;;;;;6.05;80.07;100475.75;4843057;29;20438;-62
2021/11/15 01:15:59;;;;;;;16.63;8.95;;;;;;;6.14;80.53;100476.03;4842756;29;20058;-62
2021/11/15 01:18:29;;;;;;;21.35;10.00;;;;;;;6.03;80.33;100472.31;4843041;29;20152;-62
2021/11/15 01:20:58;;;;;;;18.70;10.05;;;;;;;6.01;79.94;100477.34;4843139;29;20463;-62
2021/11/15 01:23:28;;;;;;;22.65;10.30;;;;;;;5.95;80.03;100469.53;4842991;29;20058;-62
2021/11/15 01:26:12;;;;;;;16.33;8.52;;;;;;;6.00;79.99;100474.75;4842910;29;20137;-62
2021/11/15 01:28:42;;;;;;;20.15;9.07;;;;;;;5.85;79.37;100476.84;4804360;29;20051;-62
2021/11/15 01:31:13;;;;;;;21.75;9.65;;;;;;;5.78;79.30;100472.38;4804604;29;20095;-62
2021/11/15 01:33:42;;;;;;;18.35;9.18;;;;;;;5.77;79.35;100473.16;4804390;29;20087;-63
2021/11/15 01:36:18;;;;;;;19.63;10.13;;;;;;;5.74;79.16;100470.53;4807642;29;20554;-63
2021/11/15 01:38:47;;;;;;;20.05;9.20;;;;;;;5.71;79.08;100457.78;4807761;29;20063;-63
2021/11/15 01:41:19;;;;;;;18.42;8.85;;;;;;;5.71;78.73;100462.84;4808047;29;20547;-62
2021/11/15 01:43:48;;;;;;;15.95;9.50;;;;;;;5.63;78.60;100461.75;4808165;29;20059;-62
2021/11/15 01:46:19;;;;;;;17.63;9.77;;;;;;;5.52;78.23;100460.56;4807657;29;20067;-62
2021/11/15 01:48:49;;;;;;;19.08;9.20;;;;;;;5.43;78.43;100456.91;4807477;29;20051;-62
2021/11/15 01:51:19;;;;;;;19.52;8.63;;;;;;;5.40;78.43;100459.34;4807717;29;20156;-62
2021/11/15 01:53:51;;;;;;;;;;;;;;;5.38;78.48;100453.38;4808050;29;20542;-63
2021/11/15 01:56:21;;;;;;;25.38;9.65;;;;;;;5.35;78.43;100458.31;4807642;29;20288;-63
2021/11/15 01:58:50;;;;;;;21.00;9.25;;;;;;;5.35;78.20;100458.31;4807399;29;20059;-63
2021/11/15 02:01:20;;;;;;;20.60;9.73;;;;;;;5.12;78.76;100454.19;4807306;29;20043;-62
2021/11/15 02:03:52;;;;;;;22.35;10.88;;;;;;;5.06;78.40;100443.84;4807357;29;20159;-63
2021/11/15 02:06:22;;;;;;;21.00;10.60;;;;;;;5.19;79.19;100450.19;4831849;29;20050;-63
2021/11/15 02:08:51;;;;;;;;;;;;;;;5.13;78.51;100455.94;4846313;29;20375;-62
2021/11/15 02:11:23;;;;;;;16.80;7.40;;;;;;;5.01;78.73;100462.25;4845598;29;20015;-63
2021/11/15 02:14:13;;;;;;;20.63;9.48;;;;;;;4.95;78.87;100455.28;4845521;29;20050;-62
2021/11/15 02:16:44;;;;;;;16.23;8.75;;;;;;;5.01;78.81;100455.53;4807595;29;20098;-62
2021/11/15 02:19:14;;;;;;;22.77;9.52;;;;;;;4.94;78.80;100452.72;4807119;29;20062;-62
2021/11/15 02:21:45;;;;;;;18.75;10.10;;;;;;;4.92;78.42;100445.06;4806872;29;20509;-62
2021/11/15 02:24:18;;;;;;;17.08;9.93;;;;;;;4.83;78.34;100454.88;4806951;29;20111;-62
2021/11/15 02:26:51;;;;;;;19.95;9.75;;;;;;;4.69;78.69;100461.13;4807637;29;20062;-62
2021/11/15 02:29:23;;;;;;;18.55;9.65;;;;;;;4.76;78.83;100468.13;4806835;29;20047;-62
2021/11/15 02:31:55;;;;;;;18.77;9.50;;;;;;;4.83;79.41;100465.00;4807057;29;20177;-62
2021/11/15 02:34:28;;;;;;;16.67;8.40;;;;;;;4.89;78.81;100462.69;4806787;29;20062;-62
2021/11/15 02:36:58;;;;;;;23.08;10.18;;;;;;;4.87;78.53;100461.75;4807060;29;20054;-62
2021/11/15 02:39:30;;;;;;;18.83;8.65;;;;;;;4.74;78.71;100460.50;4806724;29;20077;-62
2021/11/15 02:42:00;;;;;;;15.88;8.63;;;;;;;4.69;78.67;100463.66;4806762;29;20055;-62
2021/11/15 02:44:32;;;;;;;20.67;8.88;;;;;;;4.61;78.46;100467.56;4806782;29;20051;-62
2021/11/15 02:47:02;;;;;;;19.50;8.70;;;;;;;4.64;78.39;100468.53;4817387;29;20057;-62
2021/11/15 02:49:32;;;;;;;17.63;8.68;;;;;;;4.74;78.59;100465.53;4844849;29;20079;-62
2021/11/15 02:52:07;;;;;;;20.48;9.68;;;;;;;4.59;78.58;100469.19;4844850;29;20080;-61
2021/11/15 02:54:36;;;;;;;19.60;9.93;;;;;;;4.56;78.53;100479.19;4844802;29;20064;-63
2021/11/15 02:57:09;;;;;;;19.88;9.73;;;;;;;4.47;79.07;100478.84;4844088;29;20061;-63
2021/11/15 02:59:38;;;;;;;18.15;9.52;;;;;;;4.37;79.08;100477.66;4845032;29;20085;-62
2021/11/15 03:02:11;;;;;;;19.65;9.93;;;;;;;4.39;79.29;100480.25;4844692;29;20098;-62
2021/11/15 03:04:45;;;;;;;19.60;9.40;;;;;;;4.45;79.75;100480.47;4844572;29;20054;-62
2021/11/15 03:07:19;;;;;;;21.75;9.27;;;;;;;4.56;79.44;100479.19;4844674;29;20042;-63
2021/11/15 03:09:51;;;;;;;26.35;10.70;;;;;;;4.64;79.95;100473.59;4844835;29;20049;-63
2021/11/15 03:12:32;;;;;;;19.80;9.20;;;;;;;4.79;80.04;100475.81;4844567;29;20077;-63
2021/11/15 03:15:05;;;;;;;24.77;11.00;;;;;;;4.86;80.20;100470.16;4844666;29;20088;-62
2021/11/15 03:17:40;;;;;;;17.83;8.60;;;;;;;4.86;79.80;100480.28;4844464;29;20061;-63
2021/11/15 03:20:12;;;;;;;17.90;8.50;;;;;;;4.81;79.93;100476.72;4844385;29;20061;-63
2021/11/15 03:22:49;;;;;;;16.88;7.85;;;;;;;4.78;79.71;100471.56;4844374;29;20082;-63
2021/11/15 03:25:20;;;;;;;18.85;8.00;;;;;;;4.78;79.82;100469.03;4844565;29;20069;-62
2021/11/15 03:27:52;;;;;;;19.83;8.88;;;;;;;4.80;79.65;100469.09;4844501;29;20417;-63
2021/11/15 03:30:26;;;;;;;16.90;8.40;;;;;;;4.79;79.68;100468.22;4844496;29;20050;-63
2021/11/15 03:32:58;;;;;;;19.90;9.52;;;;;;;4.80;79.57;100474.16;4844192;29;20050;-62
2021/11/15 03:35:28;;;;;;;18.27;7.85;;;;;;;4.70;79.51;100467.91;4844106;29;20050;-62
2021/11/15 03:37:58;;;;;;;18.17;8.27;;;;;;;4.61;79.42;100467.56;4844338;29;20456;-63
2021/11/15 03:40:31;;;;;;;16.45;7.70;;;;;;;4.61;79.70;100462.50;4844068;29;20057;-63
2021/11/15 03:43:03;;;;;;;16.42;7.25;;;;;;;4.66;79.78;100468.59;4844511;29;20409;-63
2021/11/15 03:45:33;;;;;;;14.98;7.53;;;;;;;4.51;78.95;100465.53;4843227;29;20057;-62
2021/11/15 03:48:03;;;;;;;15.18;7.75;;;;;;;4.40;79.18;100461.75;4844062;29;20450;-61
2021/11/15 03:50:34;;;;;;;17.48;8.75;;;;;;;4.34;78.80;100464.06;4843864;29;20050;-62
2021/11/15 03:53:06;;;;;;;16.95;8.00;;;;;;;4.34;78.53;100461.53;4843826;29;20054;-62
2021/11/15 03:55:36;;;;;;;17.27;7.75;;;;;;;4.22;79.07;100461.09;4844039;29;20489;-62
2021/11/15 03:58:05;;;;;;;15.98;7.97;;;;;;;4.23;78.92;100467.84;4843265;29;20057;-62
2021/11/15 04:00:38;;;;;;;14.63;6.90;;;;;;;4.18;78.73;100474.38;4843996;29;20054;-62
2021/11/15 04:03:16;;;;;;;18.40;7.82;;;;;;;4.17;78.28;100465.09;4843671;29;20493;-62
2021/11/15 04:05:56;;;;;;;14.77;7.35;;;;;;;4.08;78.69;100461.44;4843730;29;20527;-62
2021/11/15 04:08:27;;;;;;;19.17;8.15;;;;;;;3.96;78.71;100468.53;4843493;29;20054;-63
2021/11/15 04:11:00;;;;;;;15.20;8.40;;;;;;;3.98;78.86;100471.97;4844091;29;20467;-62
2021/11/15 04:13:32;;;;;;;14.10;7.22;;;;;;;3.91;78.82;100464.97;4843728;29;20516;-62
2021/11/15 04:16:05;;;;;;;14.57;7.28;;;;;;;3.98;78.80;100461.03;4843359;29;20058;-62
2021/11/15 04:18:38;;;;;;;16.02;7.93;;;;;;;4.01;78.93;100464.53;4843458;29;20061;-62
2021/11/15 04:21:12;;;;;;;11.40;6.68;;;;;;;4.07;78.91;100467.28;4843655;29;20049;-62
2021/11/15 04:23:43;;;;;;;19.48;7.40;;;;;;;4.05;78.77;100463.81;4843311;29;20132;-62
2021/11/15 04:26:16;;;;;;;14.98;6.95;;;;;;;3.96;79.29;100465.16;4843809;29;20449;-62
2021/11/15 04:28:45;;;;;;;15.52;8.15;;;;;;;3.90;79.37;100473.38;4843209;29;20074;-62
2021/11/15 04:31:17;;;;;;;17.52;9.20;;;;;;;3.92;79.46;100464.19;4843395;29;20454;-62
2021/11/15 04:33:47;;;;;;;14.70;7.43;;;;;;;3.95;79.41;100466.84;4843173;29;20050;-62
2021/11/15 04:36:20;;;;;;;15.57;7.90;;;;;;;4.02;79.23;100463.72;4843010;29;20109;-63
2021/11/15 04:38:51;;;;;;;20.70;8.30;;;;;;;3.96;79.18;100471.06;4843314;29;20413;-62
2021/11/15 04:41:23;;;;;;;17.52;7.97;;;;;;;3.93;79.29;100470.97;4843353;29;20500;-62
2021/11/15 04:43:53;;;;;;;13.52;8.07;;;;;;;3.97;79.23;100472.78;4843614;29;20053;-62
2021/11/15 04:46:25;;;;;;;15.77;8.52;;;;;;;3.94;79.10;100480.25;4842879;29;20128;-62
2021/11/15 04:48:55;;;;;;;16.20;8.55;;;;;;;3.85;79.66;100476.50;4842923;29;20404;-62
2021/11/15 04:51:24;;;;;;;20.50;8.65;;;;;;;3.79;79.43;100477.13;4842845;29;20050;-62
2021/11/15 04:53:55;;;;;;;24.10;11.40;;;;;;;3.75;80.21;100477.81;4842910;29;20050;-63
2021/11/15 04:56:28;;;;;;;27.50;11.40;;;;;;;3.76;79.50;100483.72;4842889;29;20106;-62
2021/11/15 04:58:58;;;;;;;24.73;11.52;;;;;;;3.76;79.49;100483.72;4841759;29;20119;-62
2021/11/15 05:01:27;;;;;;;21.73;10.30;;;;;;;3.80;79.65;100485.56;4842866;29;20133;-62
2021/11/15 05:03:59;;;;;;;;;;;;;;;3.86;80.05;100488.34;4843216;29;20050;-62
2021/11/15 05:06:28;;;;;;;23.38;10.30;;;;;;;3.85;80.76;100490.00;4842802;29;19924;-62
2021/11/15 05:09:00;;;;;;;17.67;9.35;;;;;;;3.87;80.47;100493.44;4843368;29;20572;-62
2021/11/15 05:11:32;;;;;;;19.13;9.23;;;;;;;3.86;80.38;100495.91;4846683;29;20137;-62
2021/11/15 05:14:08;;;;;;;18.33;8.25;;;;;;;3.84;80.97;100483.22;4846891;29;20458;-62
2021/11/15 05:16:37;;;;;;;17.40;8.75;;;;;;;3.85;80.63;100487.47;4846532;29;20083;-62
2021/11/15 05:19:07;;;;;;;15.65;8.70;;;;;;;3.91;80.38;100487.69;4846759;29;20080;-62
2021/11/15 05:21:36;;;;;;;14.93;7.82;;;;;;;3.87;80.39;100485.88;4846456;29;20042;-62
2021/11/15 05:24:07;;;;;;;15.27;7.90;;;;;;;3.86;80.03;100490.88;4846662;29;20098;-62
2021/11/15 05:26:37;;;;;;;14.88;7.78;;;;;;;3.79;80.56;100494.78;4846339;29;20065;-62
2021/11/15 05:29:11;;;;;;;15.15;6.90;;;;;;;3.75;80.28;100495.47;4846266;29;20137;-63
2021/11/15 05:31:43;;;;;;;12.45;6.93;;;;;;;3.87;79.85;100498.50;4846624;29;20050;-62
2021/11/15 05:34:13;;;;;;;19.42;9.60;;;;;;;3.77;80.28;100501.44;4846534;29;20050;-61
2021/11/15 05:36:42;;;;;;;23.13;12.18;;;;;;;3.71;80.09;100503.75;4845211;29;20054;-63
2021/11/15 05:39:13;;;;;;;37.92;15.82;;;;;;;3.70;79.78;100501.16;4846104;29;20075;-63
2021/11/15 05:41:45;;;;;;;55.72;22.17;;;;;;;3.59;79.37;100510.84;4846101;29;20145;-63
2021/11/15 05:44:18;;;;;;;61.28;25.70;;;;;;;3.50;79.78;100507.94;4846380;29;20604;-63
2021/11/15 05:46:47;;;;;;;62.63;24.83;;;;;;;3.49;79.94;100511.25;4845965;29;20054;-62
2021/11/15 05:49:17;;;;;;;46.65;20.83;;;;;;;3.55;79.88;100508.97;4846463;29;20421;-62
2021/11/15 05:51:46;;;;;;;24.13;10.68;;;;;;;3.55;79.66;100524.09;4846113;29;20049;-62
2021/11/15 05:54:18;;;;;;;17.77;8.20;;;;;;;3.50;78.82;100515.50;4845890;29;20128;-62
2021/11/15 05:56:48;;;;;;;17.92;8.13;;;;;;;3.30;79.56;100511.31;4845016;29;20169;-63
2021/11/15 05:59:17;;;;;;;13.10;6.57;;;;;;;3.36;78.98;100516.59;4844619;29;20472;-62
2021/11/15 06:01:49;;;;;;;16.23;8.02;;;;;;;3.41;79.77;100522.69;4845773;29;20080;-62
2021/11/15 06:04:22;;;;;;;18.40;8.32;;;;;;;3.47;79.77;100525.47;4845755;29;20137;-62
2021/11/15 06:06:52;;;;;;;18.30;8.02;;;;;;;3.52;79.85;100529.06;4845737;29;20144;-62
2021/11/15 06:09:25;;;;;;;;;;;;;;;3.46;79.57;100533.81;4846223;29;20050;-62
2021/11/15 06:11:58;;;;;;;14.07;6.82;;;;;;;3.39;78.89;100536.91;4845837;29;20010;-62
2021/11/15 06:14:30;;;;;;;16.88;8.68;;;;;;;3.47;79.95;100538.09;4845575;29;20053;-61
2021/11/15 06:17:02;;;;;;;19.15;7.32;;;;;;;3.53;79.92;100540.84;4845480;29;20060;-61
2021/11/15 06:19:35;;;;;;;12.75;7.20;;;;;;;3.52;79.54;100549.25;4845803;29;20133;-62
2021/11/15 06:22:07;;;;;;;15.18;7.78;;;;;;;3.39;79.80;100552.03;4845616;29;20408;-62
2021/11/15 06:24:41;;;;;;;17.27;8.60;;;;;;;3.41;79.29;100555.47;4845324;29;20501;-62
2021/11/15 06:27:13;;;;;;;18.65;9.27;;;;;;;3.39;78.86;100552.03;4845907;29;20415;-62
2021/11/15 06:29:46;;;;;;;19.25;10.20;;;;;;;3.35;79.24;100560.28;4845140;29;20057;-63
2021/11/15 06:32:20;;;;;;;44.58;19.27;;;;;;;3.39;79.92;100559.59;4845257;29;20129;-63
2021/11/15 06:34:52;;;;;;;81.97;33.83;;;;;;;3.44;80.26;100565.72;4845186;29;20107;-62
2021/11/15 06:37:22;;;;;;;61.28;27.10;;;;;;;3.47;80.34;100560.81;4845194;29;20381;-62
2021/11/15 06:39:53;;;;;;;51.78;22.25;;;;;;;3.40;79.58;100573.97;4844727;29;20057;-62
2021/11/15 06:42:22;;;;;;;42.85;21.23;;;;;;;3.25;80.17;100583.41;4842412;29;20048;-62
2021/11/15 06:44:51;;;;;;;46.03;21.23;;;;;;;3.20;81.08;100584.84;4838621;29;20050;-62
2021/11/15 06:47:21;;;;;;;37.13;18.45;;;;;;;3.31;80.53;100569.38;4844573;29;20070;-62
2021/11/15 06:49:52;;;;;;;32.30;16.58;;;;;;;3.39;81.19;100593.28;4845032;29;20077;-62
2021/11/15 06:52:25;;;;;;;28.17;14.30;;;;;;;3.36;80.52;100592.28;4844780;29;20553;-62
2021/11/15 06:54:56;;;;;;;26.40;14.10;;;;;;;3.20;81.50;100588.25;4845128;29;20407;-62
2021/11/15 06:57:28;;;;;;;29.98;14.27;;;;;;;2.98;81.30;100531.78;4844546;29;20050;-62
2021/11/15 06:59:58;;;;;;;25.38;14.20;;;;;;;3.56;81.74;100588.94;4844595;29;20056;-62
2021/11/15 07:02:30;;;;;;;24.50;13.25;;;;;;;3.52;81.90;100589.63;4844734;29;20050;-61
2021/11/15 07:05:04;;;;;;;22.58;11.55;;;;;;;3.50;81.29;100581.13;4844720;29;20054;-62
2021/11/15 07:07:37;;;;;;;23.45;11.15;;;;;;;3.53;81.07;100591.31;4844678;29;20054;-62
2021/11/15 07:10:11;;;;;;;24.42;12.02;;;;;;;3.56;82.04;100583.88;4836259;29;20038;-62
2021/11/15 07:12:41;;;;;;;24.17;12.23;;;;;;;3.58;81.88;100583.94;4827693;29;20062;-62
2021/11/15 07:15:12;;;;;;;22.27;12.63;;;;;;;3.79;81.63;100592.41;4826515;29;20054;-62
2021/11/15 07:17:46;;;;;;;21.75;12.00;;;;;;;4.05;82.24;100587.59;4826162;29;20145;-62
2021/11/15 07:20:18;;;;;;;19.52;10.32;;;;;;;4.06;82.11;100590.97;4826069;29;20061;-62
2021/11/15 07:22:51;;;;;;;22.00;11.82;;;;;;;4.19;81.89;100594.84;4826097;29;20054;-62
2021/11/15 07:25:22;;;;;;;21.08;11.35;;;;;;;4.48;82.33;100612.88;4825980;29;20078;-62
2021/11/15 07:27:55;;;;;;;21.05;12.50;;;;;;;4.68;81.91;100611.94;4825954;29;20054;-62
2021/11/15 07:30:25;;;;;;;53.28;19.25;;;;;;;4.85;82.11;100610.03;4835451;29;20474;-61
2021/11/15 07:32:57;;;;;;;37.95;16.42;;;;;;;4.98;81.78;100612.22;4843792;29;20054;-62
2021/11/15 07:35:29;;;;;;;36.42;16.95;;;;;;;5.14;81.69;100603.50;4844100;29;20497;-61
2021/11/15 07:37:59;;;;;;;27.15;15.23;;;;;;;5.25;81.63;100605.63;4844035;29;20129;-62
2021/11/15 07:40:30;;;;;;;37.58;17.10;;;;;;;5.36;81.20;100604.34;4843976;29;20106;-61
2021/11/15 07:42:59;;;;;;;31.05;14.68;;;;;;;5.51;81.00;100611.59;4844020;29;20509;-62
2021/11/15 07:45:29;;;;;;;26.17;13.45;;;;;;;5.68;80.78;100604.56;4843912;29;20576;-61
2021/11/15 07:47:58;;;;;;;26.13;14.60;;;;;;;5.73;80.69;100600.50;4844093;29;20464;-62
2021/11/15 07:50:27;;;;;;;24.40;14.13;;;;;;;5.85;80.67;100616.16;4844056;29;20046;-62
2021/11/15 07:53:00;;;;;;;21.52;13.43;;;;;;;5.71;79.97;100609.75;4844076;29;20201;-62
2021/11/15 07:55:31;;;;;;;24.52;13.18;;;;;;;5.58;79.81;100612.66;4844023;29;20054;-62
2021/11/15 07:58:01;;;;;;;26.33;13.52;;;;;;;5.59;80.14;100615.22;4843603;29;20149;-62
2021/11/15 08:00:31;;;;;;;22.83;12.98;;;;;;;5.57;80.09;100610.91;4843920;29;20508;-62
2021/11/15 08:03:02;;;;;;;27.17;14.20;;;;;;;5.80;80.58;100607.50;4840594;29;20053;-62
2021/11/15 08:05:31;;;;;;;26.38;15.27;;;;;;;5.87;80.63;100602.72;4843022;29;20110;-62
2021/11/15 08:08:00;;;;;;;26.65;14.77;;;;;;;5.79;80.18;100616.78;4842271;29;20057;-62
2021/11/15 08:10:31;;;;;;;27.48;15.23;;;;;;;5.75;80.59;100616.63;4843399;29;20099;-62
2021/11/15 08:13:00;;;;;;;28.30;15.82;;;;;;;5.86;80.87;100615.31;4843141;29;20138;-62
2021/11/15 08:15:30;;;;;;;23.73;14.77;;;;;;;5.90;81.05;100617.16;4843511;29;20065;-62
2021/11/15 08:18:02;;;;;;;;;;;;;;;6.13;80.82;100616.22;4843564;29;20042;-62
2021/11/15 08:20:33;;;;;;;21.73;12.00;;;;;;;6.29;81.24;100615.03;4843229;29;19924;-62
2021/11/15 08:23:05;;;;;;;24.05;13.32;;;;;;;6.23;80.69;100618.25;4843146;29;20053;-62
2021/11/15 08:26:09;;;;;;;23.45;14.30;;;;;;;6.54;81.44;100620.91;4843102;29;20057;-62
2021/11/15 08:28:38;;;;;;;26.15;14.55;;;;;;;6.55;80.36;100614.19;4842167;29;20419;-62
2021/11/15 08:31:09;;;;;;;29.27;15.60;;;;;;;6.74;81.10;100616.44;4843305;29;20093;-62
2021/11/15 08:33:39;;;;;;;27.45;14.13;;;;;;;7.01;80.37;100613.81;4843118;29;20559;-62
2021/11/15 08:36:09;;;;;;;26.50;15.27;;;;;;;7.19;80.56;100616.88;4842697;29;20049;-62
2021/11/15 08:38:50;;;;;;;24.58;14.38;;;;;;;7.34;80.23;100612.25;4842802;29;20050;-61
2021/11/15 08:41:24;;;;;;;24.35;14.07;;;;;;;7.28;79.79;100609.53;4840132;29;20086;-61
2021/11/15 08:43:56;;;;;;;23.52;14.80;;;;;;;7.31;79.74;100610.47;4832766;29;20146;-62
2021/11/15 08:46:27;;;;;;;27.10;16.13;;;;;;;7.51;79.49;100613.53;4833939;29;20052;-62
2021/11/15 08:49:05;;;;;;;31.05;15.80;;;;;;;7.79;79.55;100608.34;4836525;29;20046;-62
2021/11/15 08:51:36;;;;;;;27.80;15.90;;;;;;;8.07;78.80;100602.25;4842769;29;20046;-63
2021/11/15 08:54:08;;;;;;;26.17;15.52;;;;;;;8.26;78.29;100611.16;4842879;29;20053;-62
2021/11/15 08:56:40;;;;;;;23.48;13.73;;;;;;;8.15;77.55;100587.19;4843026;29;20053;-62
2021/11/15 08:59:30;;;;;;;27.77;15.52;;;;;;;8.41;77.07;100602.25;4842648;29;20137;-62
2021/11/15 09:02:04;;;;;;;24.48;14.35;;;;;;;8.69;76.37;100611.34;4842617;29;20137;-62
2021/11/15 09:04:36;;;;;;;22.25;10.82;;;;;;;8.83;76.28;100611.66;4842647;29;20061;-62
2021/11/15 09:07:07;;;;;;;22.25;10.80;;;;;;;8.96;76.13;100614.47;4842946;29;20066;-62
2021/11/15 09:09:36;;;;;;;21.15;10.77;;;;;;;8.94;75.45;100611.06;4842560;29;20121;-62
2021/11/15 09:12:09;;;;;;;21.88;11.35;;;;;;;8.91;75.75;100613.53;4842733;29;20046;-62
2021/11/15 09:14:38;;;;;;;25.48;12.20;;;;;;;8.97;75.64;100608.56;4842925;29;20046;-62
2021/11/15 09:17:09;;;;;;;25.85;11.80;;;;;;;9.05;75.82;100618.88;4842506;29;20050;-62
2021/11/15 09:19:39;;;;;;;20.23;10.30;;;;;;;8.93;75.70;100586.41;4842785;29;20510;-62
2021/11/15 09:22:12;;;;;;;20.23;11.35;;;;;;;9.35;74.92;100617.84;4842579;29;20046;-62
2021/11/15 09:24:44;;;;;;;24.75;11.27;;;;;;;9.54;74.75;100613.06;4843104;29;20087;-62
2021/11/15 09:27:19;;;;;;;21.10;11.73;;;;;;;9.76;75.17;100604.97;4842627;29;20050;-62
2021/11/15 09:29:50;;;;;;;19.42;10.43;;;;;;;9.98;74.68;100614.72;4826096;29;20052;-62
2021/11/15 09:32:21;;;;;;;22.02;10.80;;;;;;;10.19;73.90;100607.44;4842455;29;20050;-62
2021/11/15 09:34:50;;;;;;;21.23;11.40;;;;;;;10.19;73.29;100610.00;4842805;29;20145;-62
2021/11/15 09:37:23;;;;;;;21.95;11.23;;;;;;;10.28;73.19;100617.78;4842770;29;20408;-62
2021/11/15 09:39:55;;;;;;;21.63;11.93;;;;;;;10.31;73.49;100612.72;4842767;29;20078;-62
2021/11/15 09:42:26;;;;;;;25.65;11.13;;;;;;;10.42;73.00;100608.63;4842175;29;20042;-61
2021/11/15 09:45:01;;;;;;;19.08;10.85;;;;;;;10.31;72.75;100606.75;4842146;29;20132;-62
2021/11/15 09:47:34;;;;;;;22.33;11.75;;;;;;;10.59;72.26;100604.63;4842123;29;20053;-62
2021/11/15 09:50:05;;;;;;;20.60;11.45;;;;;;;10.83;71.94;100616.88;4842122;29;20050;-62
2021/11/15 09:52:41;;;;;;;21.73;11.57;;;;;;;10.94;71.34;100617.03;4842496;29;20065;-62
2021/11/15 09:55:17;;;;;;;20.13;11.57;;;;;;;11.04;71.26;100618.81;4842770;29;20137;-62
2021/11/15 09:57:49;;;;;;;22.35;12.25;;;;;;;10.53;71.00;100522.84;4845750;29;20525;-62
2021/11/15 10:00:23;;;;;;;22.20;11.98;;;;;;;11.14;70.73;100615.53;4844727;29;20046;-61
2021/11/15 10:02:53;;;;;;;21.85;11.43;;;;;;;11.31;70.70;100619.16;4845728;29;20060;-62
2021/11/15 10:05:31;;;;;;;20.77;11.00;;;;;;;11.22;70.53;100616.50;4846031;29;20469;-62
2021/11/15 10:08:09;;;;;;;21.13;10.80;;;;;;;11.35;70.44;100616.66;4846095;29;20432;-62
2021/11/15 10:10:44;;;;;;;22.42;11.20;;;;;;;11.45;70.43;100607.38;4845915;29;20476;-62
2021/11/15 10:13:24;;;;;;;21.55;12.15;;;;;;;11.41;70.43;100603.97;4845351;29;20061;-62
2021/11/15 10:16:04;;;;;;;22.17;11.15;;;;;;;11.48;70.16;100609.97;4845492;29;20089;-62
2021/11/15 10:18:51;;;;;;;19.92;10.77;;;;;;;11.64;69.92;100619.50;4846039;29;20462;-62
2021/11/15 10:21:31;;;;;;;21.98;11.35;;;;;;;11.26;69.72;100536.47;4845828;29;20512;-62
2021/11/15 10:24:06;;;;;;;20.35;11.30;;;;;;;11.61;69.43;100570.94;4845914;29;20046;-62
2021/11/15 10:26:39;;;;;;;22.63;11.77;;;;;;;11.64;69.13;100609.28;4845586;29;20099;-62
2021/11/15 10:29:14;;;;;;;22.83;11.88;;;;;;;11.70;69.08;100606.84;4846413;29;20398;-62
2021/11/15 10:31:49;;;;;;;20.63;12.10;;;;;;;11.70;68.97;100591.50;4845477;29;20053;-61
2021/11/15 10:34:39;;;;;;;25.73;14.27;;;;;;;11.83;68.46;100595.84;4845464;29;20118;-62
2021/11/15 10:37:14;;;;;;;22.33;12.03;;;;;;;11.97;68.15;100596.81;4843396;29;20050;-62
2021/11/15 10:39:47;;;;;;;20.75;11.70;;;;;;;12.06;68.51;100603.75;4843121;29;20057;-62
2021/11/15 10:42:20;;;;;;;19.05;11.23;;;;;;;12.14;68.33;100611.47;4843355;29;20846;-62
2021/11/15 10:44:56;;;;;;;22.08;11.55;;;;;;;12.13;68.27;100602.94;4843045;29;20489;-62
2021/11/15 10:47:31;;;;;;;;;;;;;;;12.22;68.28;100600.44;4843278;29;20525;-62
2021/11/15 10:50:11;;;;;;;23.67;10.70;;;;;;;12.40;68.20;100604.84;4842793;29;19925;-62
2021/11/15 10:52:43;;;;;;;20.98;11.05;;;;;;;12.44;67.86;100598.88;4843329;29;20054;-62
2021/11/15 10:55:18;;;;;;;20.23;12.18;;;;;;;12.61;68.04;100602.41;4843193;29;20193;-62
2021/11/15 10:57:48;;;;;;;19.90;10.82;;;;;;;12.61;67.33;100607.53;4827417;29;20447;-62
2021/11/15 11:00:32;;;;;;;19.88;11.20;;;;;;;12.35;67.42;100606.50;4842835;29;20517;-62
2021/11/15 11:03:14;;;;;;;18.75;10.50;;;;;;;12.06;67.96;100603.75;4842918;29;20114;-61
2021/11/15 11:05:48;;;;;;;18.08;10.52;;;;;;;11.83;68.20;100605.25;4842563;29;20051;-61
2021/11/15 11:08:21;;;;;;;21.13;11.07;;;;;;;11.58;68.54;100609.25;4842764;29;20133;-62
2021/11/15 11:11:15;;;;;;;18.95;10.45;;;;;;;11.30;69.02;100548.47;4844198;29;20060;-61
2021/11/15 11:13:50;;;;;;;21.75;11.02;;;;;;;11.48;68.92;100596.34;4840502;29;20057;-62
2021/11/15 11:16:38;;;;;;;18.25;10.80;;;;;;;11.43;69.15;100604.81;4844368;29;20054;-62
2021/11/15 11:19:19;;;;;;;21.08;11.77;;;;;;;11.60;69.80;100587.09;4844700;29;20074;-62
2021/11/15 11:24:44;;;;;;;;;;;;;;;11.54;69.73;100612.59;4845058;29;20045;-62
2021/11/15 11:27:18;;;;;;;22.73;11.50;;;;;;;11.38;70.08;100608.16;4844278;29;19977;-62
2021/11/15 11:29:50;;;;;;;21.75;11.90;;;;;;;11.29;70.58;100605.50;4844155;29;20054;-62
2021/11/15 11:32:24;;;;;;;24.92;12.65;;;;;;;11.28;70.76;100603.78;4844112;29;20107;-62
2021/11/15 11:34:56;;;;;;;23.35;12.07;;;;;;;11.23;70.46;100598.63;4844151;29;20500;-62
2021/11/15 11:37:29;;;;;;;27.25;13.45;;;;;;;11.15;71.34;100596.84;4844377;29;20461;-62
2021/11/15 11:40:04;;;;;;;24.45;12.32;;;;;;;11.09;71.96;100601.84;4844139;29;20062;-62
2021/11/15 11:42:34;;;;;;;25.35;13.55;;;;;;;11.13;72.39;100588.31;4844011;29;20133;-62
2021/11/15 11:45:06;;;;;;;23.25;13.20;;;;;;;11.06;72.50;100582.25;4844145;29;20054;-62
2021/11/15 11:47:40;;;;;;;22.35;12.38;;;;;;;11.17;72.73;100575.56;4843678;29;20450;-62
2021/11/15 11:50:11;;;;;;;24.65;12.57;;;;;;;11.37;72.58;100560.47;4844033;29;20497;-62